sensor_id;sensor_type;location;lat;lon;timestamp;P1;durP1;ratioP1;P2;durP2;ratioP2
76310;SDS011;65120;59.304;18.294;2023-05-10T00:01:52;3.40;;;1.75;;
76310;SDS011;65120;59.304;18.294;2023-05-10T00:04:19;5.70;;;2.17;;
76310;SDS011;65120;59.304;18.294;2023-05-10T00:06:46;5.55;;;2.00;;
76310;SDS011;65120;59.304;18.294;2023-05-10T00:09:13;7.47;;;1.92;;
76310;SDS011;65120;59.304;18.294;2023-05-10T00:11:41;7.70;;;2.72;;
76310;SDS011;65120;59.304;18.294;2023-05-10T00:14:08;3.25;;;1.73;;
76310;SDS011;65120;59.304;18.294;2023-05-10T00:16:35;6.78;;;2.13;;
76310;SDS011;65120;59.304;18.294;2023-05-10T00:19:02;6.68;;;1.95;;
76310;SDS011;65120;59.304;18.294;2023-05-10T00:21:29;5.22;;;1.85;;
76310;SDS011;65120;59.304;18.294;2023-05-10T00:23:57;4.88;;;1.63;;
76310;SDS011;65120;59.304;18.294;2023-05-10T00:26:24;13.15;;;2.40;;
76310;SDS011;65120;59.304;18.294;2023-05-10T00:28:52;7.03;;;1.80;;
76310;SDS011;65120;59.304;18.294;2023-05-10T00:31:19;3.08;;;1.80;;
76310;SDS011;65120;59.304;18.294;2023-05-10T00:33:46;6.93;;;2.67;;
76310;SDS011;65120;59.304;18.294;2023-05-10T00:36:12;4.57;;;1.95;;
76310;SDS011;65120;59.304;18.294;2023-05-10T00:38:39;3.88;;;1.60;;
76310;SDS011;65120;59.304;18.294;2023-05-10T00:41:06;6.63;;;1.60;;
76310;SDS011;65120;59.304;18.294;2023-05-10T00:43:33;5.30;;;2.58;;
76310;SDS011;65120;59.304;18.294;2023-05-10T00:46:02;6.07;;;2.00;;
76310;SDS011;65120;59.304;18.294;2023-05-10T00:48:29;2.92;;;1.52;;
76310;SDS011;65120;59.304;18.294;2023-05-10T00:50:56;5.25;;;2.13;;
76310;SDS011;65120;59.304;18.294;2023-05-10T00:53:23;5.25;;;1.58;;
76310;SDS011;65120;59.304;18.294;2023-05-10T00:55:50;4.88;;;1.55;;
76310;SDS011;65120;59.304;18.294;2023-05-10T00:58:17;2.35;;;1.25;;
76310;SDS011;65120;59.304;18.294;2023-05-10T01:00:44;3.90;;;1.95;;
76310;SDS011;65120;59.304;18.294;2023-05-10T01:03:14;4.40;;;1.80;;
76310;SDS011;65120;59.304;18.294;2023-05-10T01:05:42;2.22;;;1.58;;
76310;SDS011;65120;59.304;18.294;2023-05-10T01:08:09;5.70;;;1.80;;
76310;SDS011;65120;59.304;18.294;2023-05-10T01:10:35;4.00;;;1.58;;
76310;SDS011;65120;59.304;18.294;2023-05-10T01:13:02;5.65;;;1.55;;
76310;SDS011;65120;59.304;18.294;2023-05-10T01:15:29;3.22;;;1.80;;
76310;SDS011;65120;59.304;18.294;2023-05-10T01:17:58;3.92;;;1.98;;
76310;SDS011;65120;59.304;18.294;2023-05-10T01:20:26;5.60;;;2.40;;
76310;SDS011;65120;59.304;18.294;2023-05-10T01:23:11;4.60;;;1.83;;
76310;SDS011;65120;59.304;18.294;2023-05-10T01:26:18;2.70;;;1.60;;
76310;SDS011;65120;59.304;18.294;2023-05-10T01:32:11;2.50;;;1.40;;
76310;SDS011;65120;59.304;18.294;2023-05-10T01:34:48;3.83;;;1.88;;
76310;SDS011;65120;59.304;18.294;2023-05-10T01:37:25;4.78;;;2.05;;
76310;SDS011;65120;59.304;18.294;2023-05-10T01:39:59;4.75;;;2.00;;
76310;SDS011;65120;59.304;18.294;2023-05-10T01:42:36;3.42;;;1.77;;
76310;SDS011;65120;59.304;18.294;2023-05-10T01:45:08;3.50;;;2.03;;
76310;SDS011;65120;59.304;18.294;2023-05-10T01:47:43;5.28;;;1.52;;
76310;SDS011;65120;59.304;18.294;2023-05-10T01:50:14;4.88;;;2.13;;
76310;SDS011;65120;59.304;18.294;2023-05-10T01:52:51;8.95;;;2.75;;
76310;SDS011;65120;59.304;18.294;2023-05-10T01:55:21;4.90;;;2.10;;
76310;SDS011;65120;59.304;18.294;2023-05-10T01:57:52;3.17;;;2.20;;
76310;SDS011;65120;59.304;18.294;2023-05-10T02:00:26;5.18;;;2.78;;
76310;SDS011;65120;59.304;18.294;2023-05-10T02:02:56;3.90;;;2.33;;
76310;SDS011;65120;59.304;18.294;2023-05-10T02:05:24;3.25;;;2.13;;
76310;SDS011;65120;59.304;18.294;2023-05-10T02:07:52;4.47;;;1.70;;
76310;SDS011;65120;59.304;18.294;2023-05-10T02:10:20;3.67;;;2.22;;
76310;SDS011;65120;59.304;18.294;2023-05-10T02:12:47;5.63;;;2.42;;
76310;SDS011;65120;59.304;18.294;2023-05-10T02:15:17;5.35;;;2.90;;
76310;SDS011;65120;59.304;18.294;2023-05-10T02:17:47;4.90;;;2.30;;
76310;SDS011;65120;59.304;18.294;2023-05-10T02:20:16;7.50;;;2.20;;
76310;SDS011;65120;59.304;18.294;2023-05-10T02:22:45;4.97;;;2.58;;
76310;SDS011;65120;59.304;18.294;2023-05-10T02:25:15;5.00;;;2.58;;
76310;SDS011;65120;59.304;18.294;2023-05-10T02:27:42;7.07;;;2.85;;
76310;SDS011;65120;59.304;18.294;2023-05-10T02:30:11;2.90;;;2.33;;
76310;SDS011;65120;59.304;18.294;2023-05-10T02:32:39;3.75;;;2.28;;
76310;SDS011;65120;59.304;18.294;2023-05-10T02:35:07;5.07;;;2.45;;
76310;SDS011;65120;59.304;18.294;2023-05-10T02:37:37;6.28;;;3.13;;
76310;SDS011;65120;59.304;18.294;2023-05-10T02:40:06;11.60;;;3.00;;
76310;SDS011;65120;59.304;18.294;2023-05-10T02:42:35;4.15;;;2.42;;
76310;SDS011;65120;59.304;18.294;2023-05-10T02:45:05;6.57;;;2.50;;
76310;SDS011;65120;59.304;18.294;2023-05-10T02:47:37;7.55;;;1.88;;
76310;SDS011;65120;59.304;18.294;2023-05-10T02:50:04;3.00;;;2.22;;
76310;SDS011;65120;59.304;18.294;2023-05-10T02:52:36;6.35;;;2.50;;
76310;SDS011;65120;59.304;18.294;2023-05-10T02:55:09;5.50;;;2.13;;
76310;SDS011;65120;59.304;18.294;2023-05-10T02:57:41;5.25;;;2.38;;
76310;SDS011;65120;59.304;18.294;2023-05-10T03:00:12;6.90;;;2.60;;
76310;SDS011;65120;59.304;18.294;2023-05-10T03:02:40;5.03;;;2.00;;
76310;SDS011;65120;59.304;18.294;2023-05-10T03:05:07;7.22;;;2.55;;
76310;SDS011;65120;59.304;18.294;2023-05-10T03:07:34;3.80;;;1.85;;
76310;SDS011;65120;59.304;18.294;2023-05-10T03:10:03;3.35;;;2.25;;
76310;SDS011;65120;59.304;18.294;2023-05-10T03:12:33;3.58;;;2.15;;
76310;SDS011;65120;59.304;18.294;2023-05-10T03:15:25;6.32;;;2.53;;
76310;SDS011;65120;59.304;18.294;2023-05-10T03:18:04;6.15;;;3.08;;
76310;SDS011;65120;59.304;18.294;2023-05-10T03:20:36;10.80;;;2.38;;
76310;SDS011;65120;59.304;18.294;2023-05-10T03:23:09;3.13;;;1.70;;
76310;SDS011;65120;59.304;18.294;2023-05-10T03:25:40;4.22;;;2.30;;
76310;SDS011;65120;59.304;18.294;2023-05-10T03:28:09;5.38;;;2.50;;
76310;SDS011;65120;59.304;18.294;2023-05-10T03:30:37;3.13;;;2.08;;
76310;SDS011;65120;59.304;18.294;2023-05-10T03:33:05;5.57;;;2.33;;
76310;SDS011;65120;59.304;18.294;2023-05-10T03:35:33;3.85;;;2.42;;
76310;SDS011;65120;59.304;18.294;2023-05-10T03:38:00;6.80;;;2.28;;
76310;SDS011;65120;59.304;18.294;2023-05-10T03:40:26;5.60;;;2.35;;
76310;SDS011;65120;59.304;18.294;2023-05-10T03:42:58;4.20;;;2.08;;
76310;SDS011;65120;59.304;18.294;2023-05-10T03:45:25;2.47;;;2.05;;
76310;SDS011;65120;59.304;18.294;2023-05-10T03:47:52;6.32;;;2.28;;
76310;SDS011;65120;59.304;18.294;2023-05-10T03:50:19;3.78;;;2.53;;
76310;SDS011;65120;59.304;18.294;2023-05-10T03:52:46;6.85;;;2.80;;
76310;SDS011;65120;59.304;18.294;2023-05-10T03:55:13;4.47;;;3.30;;
76310;SDS011;65120;59.304;18.294;2023-05-10T03:57:39;3.92;;;2.88;;
76310;SDS011;65120;59.304;18.294;2023-05-10T04:00:08;4.30;;;2.97;;
76310;SDS011;65120;59.304;18.294;2023-05-10T04:02:36;6.72;;;2.83;;
76310;SDS011;65120;59.304;18.294;2023-05-10T04:05:03;6.10;;;2.95;;
76310;SDS011;65120;59.304;18.294;2023-05-10T04:07:31;7.50;;;3.17;;
76310;SDS011;65120;59.304;18.294;2023-05-10T04:09:58;9.30;;;3.20;;
76310;SDS011;65120;59.304;18.294;2023-05-10T04:12:25;10.52;;;3.50;;
76310;SDS011;65120;59.304;18.294;2023-05-10T04:14:51;4.47;;;3.05;;
76310;SDS011;65120;59.304;18.294;2023-05-10T04:17:20;7.00;;;2.65;;
76310;SDS011;65120;59.304;18.294;2023-05-10T04:19:46;7.95;;;3.10;;
76310;SDS011;65120;59.304;18.294;2023-05-10T04:22:13;4.43;;;3.10;;
76310;SDS011;65120;59.304;18.294;2023-05-10T04:24:41;7.18;;;3.83;;
76310;SDS011;65120;59.304;18.294;2023-05-10T04:27:07;10.93;;;4.25;;
76310;SDS011;65120;59.304;18.294;2023-05-10T04:29:34;5.68;;;3.10;;
76310;SDS011;65120;59.304;18.294;2023-05-10T04:32:02;5.22;;;4.10;;
76310;SDS011;65120;59.304;18.294;2023-05-10T04:34:30;5.75;;;3.60;;
76310;SDS011;65120;59.304;18.294;2023-05-10T04:36:59;4.30;;;3.15;;
76310;SDS011;65120;59.304;18.294;2023-05-10T04:39:26;9.07;;;3.72;;
76310;SDS011;65120;59.304;18.294;2023-05-10T04:41:52;11.70;;;2.75;;
76310;SDS011;65120;59.304;18.294;2023-05-10T04:44:19;4.85;;;3.00;;
76310;SDS011;65120;59.304;18.294;2023-05-10T04:46:46;4.47;;;3.08;;
76310;SDS011;65120;59.304;18.294;2023-05-10T04:49:13;4.03;;;2.92;;
76310;SDS011;65120;59.304;18.294;2023-05-10T04:51:42;6.97;;;2.33;;
76310;SDS011;65120;59.304;18.294;2023-05-10T04:54:08;9.38;;;3.63;;
76310;SDS011;65120;59.304;18.294;2023-05-10T04:56:35;5.50;;;3.25;;
76310;SDS011;65120;59.304;18.294;2023-05-10T04:59:02;3.58;;;2.75;;
76310;SDS011;65120;59.304;18.294;2023-05-10T05:01:29;4.90;;;2.58;;
76310;SDS011;65120;59.304;18.294;2023-05-10T05:03:56;6.97;;;3.38;;
76310;SDS011;65120;59.304;18.294;2023-05-10T05:06:23;6.05;;;3.78;;
76310;SDS011;65120;59.304;18.294;2023-05-10T05:08:51;5.05;;;2.90;;
76310;SDS011;65120;59.304;18.294;2023-05-10T05:11:18;6.55;;;3.08;;
76310;SDS011;65120;59.304;18.294;2023-05-10T05:13:46;4.43;;;2.35;;
76310;SDS011;65120;59.304;18.294;2023-05-10T05:16:13;5.40;;;2.47;;
76310;SDS011;65120;59.304;18.294;2023-05-10T05:18:40;7.72;;;2.40;;
76310;SDS011;65120;59.304;18.294;2023-05-10T05:21:13;3.72;;;2.28;;
76310;SDS011;65120;59.304;18.294;2023-05-10T05:23:41;6.00;;;2.47;;
76310;SDS011;65120;59.304;18.294;2023-05-10T05:26:09;6.53;;;2.63;;
76310;SDS011;65120;59.304;18.294;2023-05-10T05:28:36;6.70;;;2.60;;
76310;SDS011;65120;59.304;18.294;2023-05-10T05:31:03;2.75;;;2.00;;
76310;SDS011;65120;59.304;18.294;2023-05-10T05:33:30;6.78;;;2.20;;
76310;SDS011;65120;59.304;18.294;2023-05-10T05:35:57;6.53;;;2.10;;
76310;SDS011;65120;59.304;18.294;2023-05-10T05:38:26;2.47;;;2.17;;
76310;SDS011;65120;59.304;18.294;2023-05-10T05:40:53;10.30;;;2.03;;
76310;SDS011;65120;59.304;18.294;2023-05-10T05:43:21;2.47;;;1.77;;
76310;SDS011;65120;59.304;18.294;2023-05-10T05:45:48;2.33;;;2.05;;
76310;SDS011;65120;59.304;18.294;2023-05-10T05:48:15;7.32;;;2.40;;
76310;SDS011;65120;59.304;18.294;2023-05-10T05:50:42;4.95;;;2.13;;
76310;SDS011;65120;59.304;18.294;2023-05-10T05:53:09;6.03;;;1.60;;
76310;SDS011;65120;59.304;18.294;2023-05-10T05:55:36;3.72;;;1.77;;
76310;SDS011;65120;59.304;18.294;2023-05-10T05:58:02;5.85;;;2.58;;
76310;SDS011;65120;59.304;18.294;2023-05-10T06:00:31;11.40;;;1.90;;
76310;SDS011;65120;59.304;18.294;2023-05-10T06:02:58;2.13;;;1.67;;
76310;SDS011;65120;59.304;18.294;2023-05-10T06:05:24;3.25;;;1.98;;
76310;SDS011;65120;59.304;18.294;2023-05-10T06:07:51;5.47;;;1.55;;
76310;SDS011;65120;59.304;18.294;2023-05-10T06:10:18;1.85;;;1.48;;
76310;SDS011;65120;59.304;18.294;2023-05-10T06:12:45;3.33;;;1.88;;
76310;SDS011;65120;59.304;18.294;2023-05-10T06:15:12;4.05;;;1.75;;
76310;SDS011;65120;59.304;18.294;2023-05-10T06:17:40;2.17;;;1.55;;
76310;SDS011;65120;59.304;18.294;2023-05-10T06:20:08;2.90;;;1.70;;
76310;SDS011;65120;59.304;18.294;2023-05-10T06:22:36;4.35;;;1.70;;
76310;SDS011;65120;59.304;18.294;2023-05-10T06:25:03;7.60;;;1.88;;
76310;SDS011;65120;59.304;18.294;2023-05-10T06:27:30;3.53;;;1.70;;
76310;SDS011;65120;59.304;18.294;2023-05-10T06:29:57;2.45;;;1.42;;
76310;SDS011;65120;59.304;18.294;2023-05-10T06:32:24;2.90;;;1.45;;
76310;SDS011;65120;59.304;18.294;2023-05-10T06:34:52;4.85;;;2.30;;
76310;SDS011;65120;59.304;18.294;2023-05-10T06:37:19;7.93;;;1.42;;
76310;SDS011;65120;59.304;18.294;2023-05-10T06:39:46;1.70;;;1.45;;
76310;SDS011;65120;59.304;18.294;2023-05-10T06:42:13;2.60;;;1.77;;
76310;SDS011;65120;59.304;18.294;2023-05-10T06:44:40;2.25;;;1.67;;
76310;SDS011;65120;59.304;18.294;2023-05-10T06:47:07;4.93;;;1.30;;
76310;SDS011;65120;59.304;18.294;2023-05-10T06:49:34;5.53;;;1.60;;
76310;SDS011;65120;59.304;18.294;2023-05-10T06:52:02;7.38;;;1.67;;
76310;SDS011;65120;59.304;18.294;2023-05-10T06:54:29;2.53;;;1.40;;
76310;SDS011;65120;59.304;18.294;2023-05-10T06:56:56;4.18;;;1.50;;
76310;SDS011;65120;59.304;18.294;2023-05-10T06:59:22;2.83;;;1.60;;
76310;SDS011;65120;59.304;18.294;2023-05-10T07:01:49;3.53;;;1.10;;
76310;SDS011;65120;59.304;18.294;2023-05-10T07:04:16;2.33;;;1.25;;
76310;SDS011;65120;59.304;18.294;2023-05-10T07:06:43;6.43;;;1.50;;
76310;SDS011;65120;59.304;18.294;2023-05-10T07:09:12;7.05;;;2.00;;
76310;SDS011;65120;59.304;18.294;2023-05-10T07:11:39;7.50;;;2.60;;
76310;SDS011;65120;59.304;18.294;2023-05-10T07:14:06;4.25;;;1.42;;
76310;SDS011;65120;59.304;18.294;2023-05-10T07:16:33;4.25;;;1.20;;
76310;SDS011;65120;59.304;18.294;2023-05-10T07:19:00;3.90;;;1.23;;
76310;SDS011;65120;59.304;18.294;2023-05-10T07:21:27;1.20;;;0.98;;
76310;SDS011;65120;59.304;18.294;2023-05-10T07:23:54;3.47;;;1.60;;
76310;SDS011;65120;59.304;18.294;2023-05-10T07:26:22;2.47;;;1.20;;
76310;SDS011;65120;59.304;18.294;2023-05-10T07:28:49;3.92;;;1.50;;
76310;SDS011;65120;59.304;18.294;2023-05-10T07:31:16;2.35;;;1.55;;
76310;SDS011;65120;59.304;18.294;2023-05-10T07:33:43;6.32;;;1.30;;
76310;SDS011;65120;59.304;18.294;2023-05-10T07:36:10;5.25;;;1.30;;
76310;SDS011;65120;59.304;18.294;2023-05-10T07:38:36;5.90;;;1.60;;
76310;SDS011;65120;59.304;18.294;2023-05-10T07:41:03;3.28;;;1.23;;
76310;SDS011;65120;59.304;18.294;2023-05-10T07:43:31;5.85;;;1.58;;
76310;SDS011;65120;59.304;18.294;2023-05-10T07:45:58;4.50;;;1.20;;
76310;SDS011;65120;59.304;18.294;2023-05-10T07:48:25;4.00;;;0.90;;
76310;SDS011;65120;59.304;18.294;2023-05-10T07:50:52;3.63;;;1.38;;
76310;SDS011;65120;59.304;18.294;2023-05-10T07:53:19;3.85;;;1.40;;
76310;SDS011;65120;59.304;18.294;2023-05-10T07:55:49;2.00;;;0.80;;
76310;SDS011;65120;59.304;18.294;2023-05-10T07:58:16;4.30;;;1.40;;
76310;SDS011;65120;59.304;18.294;2023-05-10T08:00:45;3.58;;;1.45;;
76310;SDS011;65120;59.304;18.294;2023-05-10T08:03:11;2.47;;;1.17;;
76310;SDS011;65120;59.304;18.294;2023-05-10T08:05:38;2.78;;;1.05;;
76310;SDS011;65120;59.304;18.294;2023-05-10T08:08:05;5.07;;;1.25;;
76310;SDS011;65120;59.304;18.294;2023-05-10T08:10:32;3.85;;;1.30;;
76310;SDS011;65120;59.304;18.294;2023-05-10T08:12:59;1.75;;;0.93;;
76310;SDS011;65120;59.304;18.294;2023-05-10T08:15:26;4.40;;;1.48;;
76310;SDS011;65120;59.304;18.294;2023-05-10T08:17:54;4.10;;;1.23;;
76310;SDS011;65120;59.304;18.294;2023-05-10T08:20:21;2.55;;;0.88;;
76310;SDS011;65120;59.304;18.294;2023-05-10T08:22:48;2.00;;;0.88;;
76310;SDS011;65120;59.304;18.294;2023-05-10T08:25:15;4.22;;;1.30;;
76310;SDS011;65120;59.304;18.294;2023-05-10T08:27:41;8.48;;;1.45;;
76310;SDS011;65120;59.304;18.294;2023-05-10T08:30:09;3.70;;;0.98;;
76310;SDS011;65120;59.304;18.294;2023-05-10T08:32:37;3.60;;;1.05;;
76310;SDS011;65120;59.304;18.294;2023-05-10T08:35:05;3.72;;;0.85;;
76310;SDS011;65120;59.304;18.294;2023-05-10T08:37:32;1.77;;;1.00;;
76310;SDS011;65120;59.304;18.294;2023-05-10T08:39:59;2.55;;;0.77;;
76310;SDS011;65120;59.304;18.294;2023-05-10T08:42:28;4.05;;;1.20;;
76310;SDS011;65120;59.304;18.294;2023-05-10T08:44:56;2.20;;;0.93;;
76310;SDS011;65120;59.304;18.294;2023-05-10T08:47:23;2.35;;;0.93;;
76310;SDS011;65120;59.304;18.294;2023-05-10T08:49:51;4.32;;;1.63;;
76310;SDS011;65120;59.304;18.294;2023-05-10T08:52:20;5.68;;;0.90;;
76310;SDS011;65120;59.304;18.294;2023-05-10T08:54:48;8.70;;;1.60;;
76310;SDS011;65120;59.304;18.294;2023-05-10T08:57:15;2.45;;;0.77;;
76310;SDS011;65120;59.304;18.294;2023-05-10T08:59:42;5.20;;;1.20;;
76310;SDS011;65120;59.304;18.294;2023-05-10T09:02:09;1.90;;;1.10;;
76310;SDS011;65120;59.304;18.294;2023-05-10T09:04:38;3.15;;;1.20;;
76310;SDS011;65120;59.304;18.294;2023-05-10T09:07:05;3.90;;;1.20;;
76310;SDS011;65120;59.304;18.294;2023-05-10T09:09:33;2.05;;;0.90;;
76310;SDS011;65120;59.304;18.294;2023-05-10T09:12:01;10.00;;;1.92;;
76310;SDS011;65120;59.304;18.294;2023-05-10T09:14:28;2.80;;;1.10;;
76310;SDS011;65120;59.304;18.294;2023-05-10T09:16:55;2.75;;;1.58;;
76310;SDS011;65120;59.304;18.294;2023-05-10T09:19:22;3.40;;;1.10;;
76310;SDS011;65120;59.304;18.294;2023-05-10T09:21:49;3.63;;;1.30;;
76310;SDS011;65120;59.304;18.294;2023-05-10T09:24:16;3.70;;;1.10;;
76310;SDS011;65120;59.304;18.294;2023-05-10T09:26:47;3.30;;;1.60;;
76310;SDS011;65120;59.304;18.294;2023-05-10T09:29:15;6.15;;;1.35;;
76310;SDS011;65120;59.304;18.294;2023-05-10T09:31:46;1.70;;;1.25;;
76310;SDS011;65120;59.304;18.294;2023-05-10T09:34:16;5.60;;;1.20;;
76310;SDS011;65120;59.304;18.294;2023-05-10T09:36:54;3.50;;;1.42;;
76310;SDS011;65120;59.304;18.294;2023-05-10T09:39:29;6.25;;;1.42;;
76310;SDS011;65120;59.304;18.294;2023-05-10T09:41:59;1.95;;;1.33;;
76310;SDS011;65120;59.304;18.294;2023-05-10T09:44:28;5.75;;;1.83;;
76310;SDS011;65120;59.304;18.294;2023-05-10T09:46:56;3.03;;;1.33;;
76310;SDS011;65120;59.304;18.294;2023-05-10T09:49:23;4.20;;;1.10;;
76310;SDS011;65120;59.304;18.294;2023-05-10T09:51:59;2.35;;;1.63;;
76310;SDS011;65120;59.304;18.294;2023-05-10T09:54:28;2.78;;;1.20;;
76310;SDS011;65120;59.304;18.294;2023-05-10T09:56:54;2.17;;;1.17;;
76310;SDS011;65120;59.304;18.294;2023-05-10T09:59:24;10.68;;;1.40;;
76310;SDS011;65120;59.304;18.294;2023-05-10T10:01:52;2.42;;;1.70;;
76310;SDS011;65120;59.304;18.294;2023-05-10T10:04:21;4.68;;;1.15;;
76310;SDS011;65120;59.304;18.294;2023-05-10T10:06:58;2.92;;;0.98;;
76310;SDS011;65120;59.304;18.294;2023-05-10T10:09:26;7.00;;;1.42;;
76310;SDS011;65120;59.304;18.294;2023-05-10T10:11:53;4.05;;;1.65;;
76310;SDS011;65120;59.304;18.294;2023-05-10T10:14:22;3.92;;;1.33;;
76310;SDS011;65120;59.304;18.294;2023-05-10T10:16:50;3.22;;;1.05;;
76310;SDS011;65120;59.304;18.294;2023-05-10T10:19:17;4.57;;;1.50;;
76310;SDS011;65120;59.304;18.294;2023-05-10T10:21:44;5.93;;;1.38;;
76310;SDS011;65120;59.304;18.294;2023-05-10T10:24:11;3.50;;;1.25;;
76310;SDS011;65120;59.304;18.294;2023-05-10T10:26:38;4.00;;;0.98;;
76310;SDS011;65120;59.304;18.294;2023-05-10T10:29:10;3.20;;;1.17;;
76310;SDS011;65120;59.304;18.294;2023-05-10T10:31:47;3.80;;;1.25;;
76310;SDS011;65120;59.304;18.294;2023-05-10T10:34:25;3.88;;;1.48;;
76310;SDS011;65120;59.304;18.294;2023-05-10T10:36:53;6.47;;;1.30;;
76310;SDS011;65120;59.304;18.294;2023-05-10T10:39:21;6.35;;;1.23;;
76310;SDS011;65120;59.304;18.294;2023-05-10T10:41:50;4.63;;;1.20;;
76310;SDS011;65120;59.304;18.294;2023-05-10T10:44:36;1.85;;;1.38;;
76310;SDS011;65120;59.304;18.294;2023-05-10T10:47:06;5.30;;;1.00;;
76310;SDS011;65120;59.304;18.294;2023-05-10T10:50:02;1.70;;;0.73;;
76310;SDS011;65120;59.304;18.294;2023-05-10T10:52:31;1.60;;;0.90;;
76310;SDS011;65120;59.304;18.294;2023-05-10T10:55:00;3.28;;;1.00;;
76310;SDS011;65120;59.304;18.294;2023-05-10T10:57:31;6.88;;;1.30;;
76310;SDS011;65120;59.304;18.294;2023-05-10T11:02:47;4.00;;;1.63;;
76310;SDS011;65120;59.304;18.294;2023-05-10T11:05:25;1.35;;;0.73;;
76310;SDS011;65120;59.304;18.294;2023-05-10T11:08:10;4.05;;;2.08;;
76310;SDS011;65120;59.304;18.294;2023-05-10T11:11:02;1.95;;;0.80;;
76310;SDS011;65120;59.304;18.294;2023-05-10T11:13:32;1.73;;;0.98;;
76310;SDS011;65120;59.304;18.294;2023-05-10T11:16:10;3.28;;;1.27;;
76310;SDS011;65120;59.304;18.294;2023-05-10T11:18:39;12.73;;;1.65;;
76310;SDS011;65120;59.304;18.294;2023-05-10T11:21:08;1.88;;;0.73;;
76310;SDS011;65120;59.304;18.294;2023-05-10T11:23:49;5.28;;;1.00;;
76310;SDS011;65120;59.304;18.294;2023-05-10T11:26:21;1.88;;;0.93;;
76310;SDS011;65120;59.304;18.294;2023-05-10T11:28:51;3.60;;;1.02;;
76310;SDS011;65120;59.304;18.294;2023-05-10T11:31:20;1.52;;;0.93;;
76310;SDS011;65120;59.304;18.294;2023-05-10T11:33:50;1.92;;;1.10;;
76310;SDS011;65120;59.304;18.294;2023-05-10T11:36:18;3.75;;;0.98;;
76310;SDS011;65120;59.304;18.294;2023-05-10T11:38:47;1.80;;;0.93;;
76310;SDS011;65120;59.304;18.294;2023-05-10T11:41:15;3.92;;;1.00;;
76310;SDS011;65120;59.304;18.294;2023-05-10T11:43:45;5.13;;;1.05;;
76310;SDS011;65120;59.304;18.294;2023-05-10T11:46:14;4.80;;;0.93;;
76310;SDS011;65120;59.304;18.294;2023-05-10T11:48:41;3.63;;;1.02;;
76310;SDS011;65120;59.304;18.294;2023-05-10T11:51:10;2.22;;;0.95;;
76310;SDS011;65120;59.304;18.294;2023-05-10T11:53:37;2.20;;;0.80;;
76310;SDS011;65120;59.304;18.294;2023-05-10T11:56:05;8.65;;;1.77;;
76310;SDS011;65120;59.304;18.294;2023-05-10T11:58:32;1.50;;;0.77;;
76310;SDS011;65120;59.304;18.294;2023-05-10T12:01:00;2.60;;;1.30;;
76310;SDS011;65120;59.304;18.294;2023-05-10T12:03:27;1.92;;;0.70;;
76310;SDS011;65120;59.304;18.294;2023-05-10T12:05:55;3.08;;;0.70;;
76310;SDS011;65120;59.304;18.294;2023-05-10T12:08:24;4.40;;;0.80;;
76310;SDS011;65120;59.304;18.294;2023-05-10T12:10:53;7.03;;;0.90;;
76310;SDS011;65120;59.304;18.294;2023-05-10T12:13:20;1.40;;;0.82;;
76310;SDS011;65120;59.304;18.294;2023-05-10T12:15:47;3.40;;;0.90;;
76310;SDS011;65120;59.304;18.294;2023-05-10T12:18:14;7.85;;;1.35;;
76310;SDS011;65120;59.304;18.294;2023-05-10T12:20:41;1.80;;;1.00;;
76310;SDS011;65120;59.304;18.294;2023-05-10T12:23:08;1.38;;;0.80;;
76310;SDS011;65120;59.304;18.294;2023-05-10T12:25:37;1.40;;;0.73;;
76310;SDS011;65120;59.304;18.294;2023-05-10T12:28:06;2.75;;;0.88;;
76310;SDS011;65120;59.304;18.294;2023-05-10T12:30:34;5.70;;;1.15;;
76310;SDS011;65120;59.304;18.294;2023-05-10T12:33:02;4.35;;;1.33;;
76310;SDS011;65120;59.304;18.294;2023-05-10T12:35:38;2.35;;;0.68;;
76310;SDS011;65120;59.304;18.294;2023-05-10T12:38:24;1.75;;;0.70;;
76310;SDS011;65120;59.304;18.294;2023-05-10T12:40:57;2.30;;;0.70;;
76310;SDS011;65120;59.304;18.294;2023-05-10T12:43:24;4.97;;;1.00;;
76310;SDS011;65120;59.304;18.294;2023-05-10T12:45:51;2.97;;;0.82;;
76310;SDS011;65120;59.304;18.294;2023-05-10T12:48:19;1.17;;;0.80;;
76310;SDS011;65120;59.304;18.294;2023-05-10T12:50:46;3.97;;;0.57;;
76310;SDS011;65120;59.304;18.294;2023-05-10T12:53:13;2.22;;;1.00;;
76310;SDS011;65120;59.304;18.294;2023-05-10T12:55:40;3.60;;;1.10;;
76310;SDS011;65120;59.304;18.294;2023-05-10T12:58:09;6.03;;;0.82;;
76310;SDS011;65120;59.304;18.294;2023-05-10T13:00:36;4.90;;;0.80;;
76310;SDS011;65120;59.304;18.294;2023-05-10T13:03:03;1.90;;;0.70;;
76310;SDS011;65120;59.304;18.294;2023-05-10T13:05:30;4.78;;;0.88;;
76310;SDS011;65120;59.304;18.294;2023-05-10T13:07:57;3.28;;;0.80;;
76310;SDS011;65120;59.304;18.294;2023-05-10T13:10:24;6.93;;;1.10;;
76310;SDS011;65120;59.304;18.294;2023-05-10T13:12:51;1.70;;;0.70;;
76310;SDS011;65120;59.304;18.294;2023-05-10T13:15:20;2.70;;;0.70;;
76310;SDS011;65120;59.304;18.294;2023-05-10T13:17:47;2.55;;;0.60;;
76310;SDS011;65120;59.304;18.294;2023-05-10T13:20:14;2.65;;;0.80;;
76310;SDS011;65120;59.304;18.294;2023-05-10T13:22:41;2.50;;;1.02;;
76310;SDS011;65120;59.304;18.294;2023-05-10T13:25:08;6.88;;;2.25;;
76310;SDS011;65120;59.304;18.294;2023-05-10T13:27:35;2.55;;;0.60;;
76310;SDS011;65120;59.304;18.294;2023-05-10T13:30:03;4.10;;;0.70;;
76310;SDS011;65120;59.304;18.294;2023-05-10T13:32:32;3.00;;;0.60;;
76310;SDS011;65120;59.304;18.294;2023-05-10T13:34:59;1.95;;;0.65;;
76310;SDS011;65120;59.304;18.294;2023-05-10T13:37:26;2.50;;;0.85;;
76310;SDS011;65120;59.304;18.294;2023-05-10T13:39:53;5.55;;;0.80;;
76310;SDS011;65120;59.304;18.294;2023-05-10T13:42:21;2.10;;;0.73;;
76310;SDS011;65120;59.304;18.294;2023-05-10T13:44:48;3.25;;;0.57;;
76310;SDS011;65120;59.304;18.294;2023-05-10T13:47:15;3.13;;;0.60;;
76310;SDS011;65120;59.304;18.294;2023-05-10T13:49:44;4.00;;;0.80;;
76310;SDS011;65120;59.304;18.294;2023-05-10T13:52:10;0.75;;;0.50;;
76310;SDS011;65120;59.304;18.294;2023-05-10T13:54:38;1.45;;;0.60;;
76310;SDS011;65120;59.304;18.294;2023-05-10T13:57:05;3.63;;;0.60;;
76310;SDS011;65120;59.304;18.294;2023-05-10T13:59:32;4.22;;;0.77;;
76310;SDS011;65120;59.304;18.294;2023-05-10T14:01:59;3.47;;;0.80;;
76310;SDS011;65120;59.304;18.294;2023-05-10T14:04:27;2.83;;;0.80;;
76310;SDS011;65120;59.304;18.294;2023-05-10T14:06:56;6.00;;;0.80;;
76310;SDS011;65120;59.304;18.294;2023-05-10T14:09:23;3.53;;;0.70;;
76310;SDS011;65120;59.304;18.294;2023-05-10T14:11:50;5.10;;;1.38;;
76310;SDS011;65120;59.304;18.294;2023-05-10T14:14:16;1.45;;;0.85;;
76310;SDS011;65120;59.304;18.294;2023-05-10T14:16:44;2.03;;;0.50;;
76310;SDS011;65120;59.304;18.294;2023-05-10T14:19:11;1.10;;;0.90;;
76310;SDS011;65120;59.304;18.294;2023-05-10T14:21:38;1.92;;;0.60;;
76310;SDS011;65120;59.304;18.294;2023-05-10T14:24:06;1.80;;;0.60;;
76310;SDS011;65120;59.304;18.294;2023-05-10T14:26:33;2.55;;;0.57;;
76310;SDS011;65120;59.304;18.294;2023-05-10T14:29:00;4.78;;;1.30;;
76310;SDS011;65120;59.304;18.294;2023-05-10T14:31:27;0.70;;;0.60;;
76310;SDS011;65120;59.304;18.294;2023-05-10T14:33:55;2.50;;;1.33;;
76310;SDS011;65120;59.304;18.294;2023-05-10T14:36:22;2.15;;;0.60;;
76310;SDS011;65120;59.304;18.294;2023-05-10T14:38:49;1.75;;;0.68;;
76310;SDS011;65120;59.304;18.294;2023-05-10T14:41:18;9.18;;;2.58;;
76310;SDS011;65120;59.304;18.294;2023-05-10T14:43:45;2.72;;;0.60;;
76310;SDS011;65120;59.304;18.294;2023-05-10T14:46:12;1.70;;;0.60;;
76310;SDS011;65120;59.304;18.294;2023-05-10T14:48:39;4.38;;;0.80;;